Time,TemperatureF,DewpointF,PressureIn,WindDirection,WindDirectionDegrees,WindSpeedMPH,WindSpeedGustMPH,Humidity,HourlyPrecipIn,Conditions,Clouds,dailyrainin,SoftwareType,DateUTC
2013-07-08 00:11:00,61.8,48.0,29.50,WNW,286,0.0,-999.0,61,-99.99,,,0.00,weatherlink.com 1.10,2013-07-08 08:11:00,
2013-07-08 00:26:00,60.8,49.0,29.50,WNW,286,0.0,-999.0,65,-99.99,,,0.00,weatherlink.com 1.10,2013-07-08 08:26:00,
2013-07-08 00:41:00,60.2,48.0,29.51,WNW,286,0.0,-999.0,65,-99.99,,,0.00,weatherlink.com 1.10,2013-07-08 08:41:00,
2013-07-08 00:56:00,59.9,48.0,29.51,WNW,286,0.0,-999.0,66,-99.99,,,0.00,weatherlink.com 1.10,2013-07-08 08:56:00,
2013-07-08 01:11:00,59.6,49.0,29.52,WNW,286,0.0,-999.0,67,-99.99,,,0.00,weatherlink.com 1.10,2013-07-08 09:11:00,
2013-07-08 01:26:00,59.4,49.0,29.52,WNW,286,0.0,-999.0,69,-99.99,,,0.00,weatherlink.com 1.10,2013-07-08 09:26:00,
2013-07-08 01:41:00,58.9,49.0,29.52,WNW,286,0.0,-999.0,71,-99.99,,,0.00,weatherlink.com 1.10,2013-07-08 09:41:00,
2013-07-08 01:56:00,58.5,50.0,29.52,WNW,286,0.0,-999.0,73,-99.99,,,0.00,weatherlink.com 1.10,2013-07-08 09:56:00,
2013-07-08 02:11:00,58.0,50.0,29.52,WNW,286,0.0,-999.0,74,-99.99,,,0.00,weatherlink.com 1.10,2013-07-08 10:11:00,
2013-07-08 02:26:00,57.4,49.0,29.53,WNW,286,0.0,-999.0,74,-99.99,,,0.00,weatherlink.com 1.10,2013-07-08 10:26:00,
2013-07-08 02:41:00,56.8,49.0,29.53,WNW,286,0.0,-999.0,75,-99.99,,,0.00,weatherlink.com 1.10,2013-07-08 10:41:00,
2013-07-08 02:56:00,56.3,49.0,29.53,WNW,286,0.0,-999.0,77,-99.99,,,0.00,weatherlink.com 1.10,2013-07-08 10:56:00,
2013-07-08 03:11:00,55.7,49.0,29.54,WNW,286,0.0,-999.0,78,-99.99,,,0.00,weatherlink.com 1.10,2013-07-08 11:11:00,
2013-07-08 03:27:00,55.3,49.0,29.54,WNW,286,0.0,-999.0,79,-99.99,,,0.00,weatherlink.com 1.10,2013-07-08 11:27:00,
2013-07-08 03:42:00,55.6,49.0,29.54,WNW,286,0.0,-999.0,78,-99.99,,,0.00,weatherlink.com 1.10,2013-07-08 11:42:00,
2013-07-08 03:57:00,55.7,49.0,29.54,WNW,286,0.0,-999.0,79,-99.99,,,0.00,weatherlink.com 1.10,2013-07-08 11:57:00,
2013-07-08 04:11:00,55.3,49.0,29.55,WNW,286,0.0,-999.0,80,-99.99,,,0.00,weatherlink.com 1.10,2013-07-08 12:11:00,
2013-07-08 04:26:00,54.7,49.0,29.55,WNW,286,0.0,-999.0,80,-99.99,,,0.00,weatherlink.com 1.10,2013-07-08 12:26:00,
2013-07-08 04:41:00,54.4,48.0,29.55,WNW,288,0.0,-999.0,80,-99.99,,,0.00,weatherlink.com 1.10,2013-07-08 12:41:00,
2013-07-08 04:56:00,53.9,48.0,29.55,WNW,287,0.0,-999.0,80,-99.99,,,0.00,weatherlink.com 1.10,2013-07-08 12:56:00,
2013-07-08 05:11:00,53.5,48.0,29.55,WNW,288,0.0,-999.0,81,-99.99,,,0.00,weatherlink.com 1.10,2013-07-08 13:11:00,
2013-07-08 05:26:00,53.3,48.0,29.56,WNW,288,0.0,-999.0,82,-99.99,,,0.00,weatherlink.com 1.10,2013-07-08 13:26:00,
2013-07-08 05:41:00,53.1,48.0,29.56,WNW,288,0.0,-999.0,82,-99.99,,,0.00,weatherlink.com 1.10,2013-07-08 13:41:00,
2013-07-08 05:56:00,52.8,47.0,29.56,WNW,287,0.0,-999.0,80,-99.99,,,0.00,weatherlink.com 1.10,2013-07-08 13:56:00,
2013-07-08 06:11:00,52.7,47.0,29.57,WNW,287,0.0,-999.0,81,-99.99,,,0.00,weatherlink.com 1.10,2013-07-08 14:11:00,
2013-07-08 06:26:00,53.0,47.0,29.57,WNW,287,0.0,-999.0,80,-99.99,,,0.00,weatherlink.com 1.10,2013-07-08 14:26:00,
2013-07-08 06:41:00,53.5,48.0,29.57,WNW,287,0.0,-999.0,81,-99.99,,,0.00,weatherlink.com 1.10,2013-07-08 14:41:00,
2013-07-08 06:56:00,54.4,48.0,29.57,WNW,287,0.0,-999.0,79,-99.99,,,0.00,weatherlink.com 1.10,2013-07-08 14:56:00,
2013-07-08 07:11:00,54.9,48.0,29.57,WNW,287,0.0,-999.0,78,-99.99,,,0.00,weatherlink.com 1.10,2013-07-08 15:11:00,
2013-07-08 07:26:00,55.0,48.0,29.57,WNW,288,0.0,-999.0,78,-99.99,,,0.00,weatherlink.com 1.10,2013-07-08 15:26:00,
2013-07-08 07:41:00,55.0,48.0,29.58,WNW,288,0.0,-999.0,78,-99.99,,,0.00,weatherlink.com 1.10,2013-07-08 15:41:00,
2013-07-08 07:56:00,55.2,49.0,29.58,WNW,288,0.0,-999.0,79,-99.99,,,0.00,weatherlink.com 1.10,2013-07-08 15:56:00,
2013-07-08 08:11:00,55.3,49.0,29.58,WNW,288,0.0,-999.0,79,-99.99,,,0.00,weatherlink.com 1.10,2013-07-08 16:11:00,
2013-07-08 08:26:00,55.9,50.0,29.58,WNW,288,0.0,-999.0,80,-99.99,,,0.00,weatherlink.com 1.10,2013-07-08 16:26:00,
2013-07-08 08:41:00,56.4,50.0,29.58,WNW,288,0.0,-999.0,80,-99.99,,,0.00,weatherlink.com 1.10,2013-07-08 16:41:00,
2013-07-08 08:56:00,56.8,50.0,29.58,WSW,245,0.0,-999.0,79,-99.99,,,0.00,weatherlink.com 1.10,2013-07-08 16:56:00,
2013-07-08 09:11:00,57.2,50.0,29.58,WSW,255,0.0,-999.0,78,-99.99,,,0.00,weatherlink.com 1.10,2013-07-08 17:11:00,
2013-07-08 09:26:00,57.6,50.0,29.58,WSW,256,0.0,-999.0,77,-99.99,,,0.00,weatherlink.com 1.10,2013-07-08 17:26:00,
2013-07-08 10:26:00,60.3,51.0,29.59,West,260,0.0,-999.0,72,-99.99,,,0.00,weatherlink.com 1.10,2013-07-08 18:26:00,
2013-07-08 10:41:00,60.4,51.0,29.59,West,260,0.0,-999.0,72,-99.99,,,0.00,weatherlink.com 1.10,2013-07-08 18:41:00,
2013-07-08 10:56:00,60.6,52.0,29.59,West,260,0.0,-999.0,72,-99.99,,,0.00,weatherlink.com 1.10,2013-07-08 18:56:00,
2013-07-08 11:11:00,60.7,52.0,29.59,West,260,0.0,-999.0,72,-99.99,,,0.00,weatherlink.com 1.10,2013-07-08 19:11:00,
2013-07-08 11:26:00,61.1,52.0,29.59,West,260,0.0,-999.0,72,-99.99,,,0.00,weatherlink.com 1.10,2013-07-08 19:26:00,
2013-07-08 11:41:00,61.4,52.0,29.59,West,260,0.0,-999.0,71,-99.99,,,0.00,weatherlink.com 1.10,2013-07-08 19:41:00,
2013-07-08 11:56:00,61.9,52.0,29.59,West,260,0.0,-999.0,69,-99.99,,,0.00,weatherlink.com 1.10,2013-07-08 19:56:00,
2013-07-08 12:11:00,62.1,51.0,29.59,WSW,250,0.0,-999.0,66,-99.99,,,0.00,weatherlink.com 1.10,2013-07-08 20:11:00,
2013-07-08 12:41:00,62.4,50.0,29.59,WSW,246,0.0,-999.0,64,-99.99,,,0.00,weatherlink.com 1.10,2013-07-08 20:41:00,
2013-07-08 12:56:00,62.5,50.0,29.59,WNW,286,0.0,-999.0,63,-99.99,,,0.00,weatherlink.com 1.10,2013-07-08 20:56:00,
2013-07-08 13:11:00,62.4,50.0,29.59,WNW,293,2.0,-999.0,64,-99.99,,,0.00,weatherlink.com 1.10,2013-07-08 21:11:00,
2013-07-08 13:26:00,62.8,50.0,29.59,NW,324,0.0,-999.0,64,-99.99,,,0.00,weatherlink.com 1.10,2013-07-08 21:26:00,
2013-07-08 13:41:00,63.1,50.0,29.59,NNW,332,0.0,-999.0,62,-99.99,,,0.00,weatherlink.com 1.10,2013-07-08 21:41:00,
2013-07-08 13:56:00,64.2,51.0,29.59,NNW,332,0.0,-999.0,62,-99.99,,,0.00,weatherlink.com 1.10,2013-07-08 21:56:00,
2013-07-08 14:11:00,64.7,50.0,29.59,NNW,332,1.0,-999.0,59,-99.99,,,0.00,weatherlink.com 1.10,2013-07-08 22:11:00,
2013-07-08 14:41:00,64.5,50.0,29.59,NW,323,0.0,-999.0,60,-99.99,,,0.00,weatherlink.com 1.10,2013-07-08 22:41:00,
2013-07-08 14:56:00,65.0,51.0,29.59,NW,323,0.0,-999.0,61,-99.99,,,0.00,weatherlink.com 1.10,2013-07-08 22:56:00,
2013-07-08 15:11:00,65.2,50.0,29.59,North,349,0.0,-999.0,58,-99.99,,,0.00,weatherlink.com 1.10,2013-07-08 23:11:00,
2013-07-08 15:26:00,65.2,50.0,29.59,North,349,0.0,-999.0,59,-99.99,,,0.00,weatherlink.com 1.10,2013-07-08 23:26:00,
2013-07-08 15:41:00,64.8,49.0,29.60,WSW,254,1.0,-999.0,56,-99.99,,,0.00,weatherlink.com 1.10,2013-07-08 23:41:00,
2013-07-08 15:56:00,61.7,52.0,29.60,NE,53,0.0,-999.0,70,-99.99,,,0.00,weatherlink.com 1.10,2013-07-08 23:56:00,
2013-07-08 16:56:00,56.0,54.0,29.61,SW,219,0.0,-999.0,91,-99.99,,,0.00,weatherlink.com 1.10,2013-07-09 00:56:00,
2013-07-08 17:26:00,57.1,55.0,29.61,SW,219,0.0,-999.0,92,-99.99,,,0.00,weatherlink.com 1.10,2013-07-09 01:26:00,
2013-07-08 17:56:00,59.3,56.0,29.62,SW,219,0.0,-999.0,89,-99.99,,,0.00,weatherlink.com 1.10,2013-07-09 01:56:00,
2013-07-08 18:26:00,59.4,54.0,29.62,East,80,0.0,-999.0,83,-99.99,,,0.00,weatherlink.com 1.10,2013-07-09 02:26:00,
2013-07-08 18:41:00,57.8,54.0,29.62,East,80,0.0,-999.0,86,-99.99,,,0.00,weatherlink.com 1.10,2013-07-09 02:41:00,
2013-07-08 18:56:00,56.7,53.0,29.62,East,80,0.0,-999.0,88,-99.99,,,0.00,weatherlink.com 1.10,2013-07-09 02:56:00,
2013-07-08 19:11:00,56.3,53.0,29.63,East,80,0.0,-999.0,89,-99.99,,,0.00,weatherlink.com 1.10,2013-07-09 03:11:00,
2013-07-08 19:26:00,56.1,53.0,29.63,East,80,0.0,-999.0,90,-99.99,,,0.00,weatherlink.com 1.10,2013-07-09 03:26:00,
2013-07-08 19:41:00,55.9,53.0,29.63,East,80,0.0,-999.0,90,-99.99,,,0.00,weatherlink.com 1.10,2013-07-09 03:41:00,
2013-07-08 20:11:00,56.5,54.0,29.64,East,80,0.0,-999.0,92,-99.99,,,0.00,weatherlink.com 1.10,2013-07-09 04:11:00,
2013-07-08 20:26:00,57.0,55.0,29.64,East,80,0.0,-999.0,93,-99.99,,,0.00,weatherlink.com 1.10,2013-07-09 04:26:00,
2013-07-08 20:41:00,57.3,55.0,29.65,East,80,0.0,-999.0,92,-99.99,,,0.00,weatherlink.com 1.10,2013-07-09 04:41:00,
2013-07-08 20:56:00,57.3,55.0,29.65,East,80,0.0,-999.0,92,-99.99,,,0.00,weatherlink.com 1.10,2013-07-09 04:56:00,
2013-07-08 21:11:00,57.0,55.0,29.65,East,80,0.0,-999.0,92,-99.99,,,0.00,weatherlink.com 1.10,2013-07-09 05:11:00,
2013-07-08 21:26:00,56.8,55.0,29.66,East,80,0.0,-999.0,92,-99.99,,,0.00,weatherlink.com 1.10,2013-07-09 05:26:00,
2013-07-08 21:41:00,56.7,55.0,29.66,East,80,0.0,-999.0,92,-99.99,,,0.00,weatherlink.com 1.10,2013-07-09 05:41:00,
2013-07-08 21:56:00,56.6,55.0,29.66,East,80,0.0,-999.0,93,-99.99,,,0.00,weatherlink.com 1.10,2013-07-09 05:56:00,
2013-07-08 22:11:00,56.4,55.0,29.66,East,80,0.0,-999.0,93,-99.99,,,0.00,weatherlink.com 1.10,2013-07-09 06:11:00,
2013-07-08 22:26:00,56.2,54.0,29.67,East,80,0.0,-999.0,93,-99.99,,,0.00,weatherlink.com 1.10,2013-07-09 06:26:00,
2013-07-08 22:41:00,56.0,54.0,29.67,East,80,0.0,-999.0,94,-99.99,,,0.00,weatherlink.com 1.10,2013-07-09 06:41:00,
2013-07-08 22:56:00,56.0,54.0,29.68,East,80,0.0,-999.0,94,-99.99,,,0.00,weatherlink.com 1.10,2013-07-09 06:56:00,
2013-07-08 23:11:00,56.0,54.0,29.68,East,80,0.0,-999.0,94,-99.99,,,0.00,weatherlink.com 1.10,2013-07-09 07:11:00,
2013-07-08 23:26:00,56.0,55.0,29.68,East,80,0.0,-999.0,95,-99.99,,,0.00,weatherlink.com 1.10,2013-07-09 07:26:00,
2013-07-08 23:41:00,55.9,55.0,29.68,East,80,0.0,-999.0,95,-99.99,,,0.00,weatherlink.com 1.10,2013-07-09 07:41:00,
2013-07-08 23:56:00,55.8,54.0,29.68,East,80,0.0,-999.0,95,-99.99,,,0.00,weatherlink.com 1.10,2013-07-09 07:56:00,